sensor_id;sensor_type;location;lat;lon;timestamp;temperature;humidity
23532;DHT22;11943;52.270;20.978;2023-04-03T00:00:40;2.60;95.60
23532;DHT22;11943;52.270;20.978;2023-04-03T00:03:06;2.60;94.60
23532;DHT22;11943;52.270;20.978;2023-04-03T00:05:32;2.60;94.00
23532;DHT22;11943;52.270;20.978;2023-04-03T00:07:58;2.60;95.10
23532;DHT22;11943;52.270;20.978;2023-04-03T00:10:23;2.50;94.40
23532;DHT22;11943;52.270;20.978;2023-04-03T00:12:49;2.50;95.50
23532;DHT22;11943;52.270;20.978;2023-04-03T00:15:15;2.40;94.00
23532;DHT22;11943;52.270;20.978;2023-04-03T00:17:41;2.40;94.10
23532;DHT22;11943;52.270;20.978;2023-04-03T00:20:07;2.30;95.80
23532;DHT22;11943;52.270;20.978;2023-04-03T00:22:32;2.30;95.20
23532;DHT22;11943;52.270;20.978;2023-04-03T00:24:58;2.30;95.60
23532;DHT22;11943;52.270;20.978;2023-04-03T00:27:24;2.20;94.70
23532;DHT22;11943;52.270;20.978;2023-04-03T00:29:49;2.20;94.70
23532;DHT22;11943;52.270;20.978;2023-04-03T00:32:15;2.20;94.90
23532;DHT22;11943;52.270;20.978;2023-04-03T00:34:41;2.10;95.60
23532;DHT22;11943;52.270;20.978;2023-04-03T00:37:06;2.10;95.60
23532;DHT22;11943;52.270;20.978;2023-04-03T00:39:32;2.00;95.60
23532;DHT22;11943;52.270;20.978;2023-04-03T00:41:58;2.00;96.30
23532;DHT22;11943;52.270;20.978;2023-04-03T00:47:03;1.90;95.90
23532;DHT22;11943;52.270;20.978;2023-04-03T00:49:29;1.80;95.40
23532;DHT22;11943;52.270;20.978;2023-04-03T00:51:56;1.90;95.60
23532;DHT22;11943;52.270;20.978;2023-04-03T00:54:23;1.90;96.00
23532;DHT22;11943;52.270;20.978;2023-04-03T00:56:51;1.80;95.80
23532;DHT22;11943;52.270;20.978;2023-04-03T00:59:21;1.90;94.00
23532;DHT22;11943;52.270;20.978;2023-04-03T01:01:51;1.80;94.40
23532;DHT22;11943;52.270;20.978;2023-04-03T01:07:02;1.70;94.30
23532;DHT22;11943;52.270;20.978;2023-04-03T01:09:29;1.70;95.10
23532;DHT22;11943;52.270;20.978;2023-04-03T01:12:20;1.60;95.80
23532;DHT22;11943;52.270;20.978;2023-04-03T01:14:48;1.60;95.00
23532;DHT22;11943;52.270;20.978;2023-04-03T01:17:34;1.60;95.20
23532;DHT22;11943;52.270;20.978;2023-04-03T01:25:32;1.50;96.20
23532;DHT22;11943;52.270;20.978;2023-04-03T01:27:58;1.50;96.40
23532;DHT22;11943;52.270;20.978;2023-04-03T01:30:31;1.40;95.90
23532;DHT22;11943;52.270;20.978;2023-04-03T01:32:57;1.40;96.20
23532;DHT22;11943;52.270;20.978;2023-04-03T01:35:23;1.40;95.40
23532;DHT22;11943;52.270;20.978;2023-04-03T01:37:49;1.40;95.60
23532;DHT22;11943;52.270;20.978;2023-04-03T01:40:15;1.30;95.50
23532;DHT22;11943;52.270;20.978;2023-04-03T01:42:40;1.30;95.30
23532;DHT22;11943;52.270;20.978;2023-04-03T01:45:06;1.30;96.50
23532;DHT22;11943;52.270;20.978;2023-04-03T01:47:32;1.30;96.60
23532;DHT22;11943;52.270;20.978;2023-04-03T01:49:58;1.30;97.20
23532;DHT22;11943;52.270;20.978;2023-04-03T01:52:23;1.30;96.00
23532;DHT22;11943;52.270;20.978;2023-04-03T01:54:49;1.20;96.00
23532;DHT22;11943;52.270;20.978;2023-04-03T01:57:16;1.20;97.10
23532;DHT22;11943;52.270;20.978;2023-04-03T01:59:42;1.20;97.40
23532;DHT22;11943;52.270;20.978;2023-04-03T02:02:07;1.20;96.10
23532;DHT22;11943;52.270;20.978;2023-04-03T02:04:33;1.10;97.00
23532;DHT22;11943;52.270;20.978;2023-04-03T02:06:59;1.10;96.80
23532;DHT22;11943;52.270;20.978;2023-04-03T02:09:25;1.10;97.10
23532;DHT22;11943;52.270;20.978;2023-04-03T02:11:52;1.10;96.50
23532;DHT22;11943;52.270;20.978;2023-04-03T02:14:18;1.10;96.70
23532;DHT22;11943;52.270;20.978;2023-04-03T02:16:43;1.10;97.80
23532;DHT22;11943;52.270;20.978;2023-04-03T02:19:09;1.00;97.50
23532;DHT22;11943;52.270;20.978;2023-04-03T02:21:35;1.00;97.50
23532;DHT22;11943;52.270;20.978;2023-04-03T02:24:01;1.00;97.90
23532;DHT22;11943;52.270;20.978;2023-04-03T02:26:27;1.00;99.10
23532;DHT22;11943;52.270;20.978;2023-04-03T02:28:52;1.00;97.50
23532;DHT22;11943;52.270;20.978;2023-04-03T02:31:18;0.90;97.40
23532;DHT22;11943;52.270;20.978;2023-04-03T02:33:44;0.90;97.40
23532;DHT22;11943;52.270;20.978;2023-04-03T02:36:09;0.90;97.60
23532;DHT22;11943;52.270;20.978;2023-04-03T02:38:35;0.90;97.60
23532;DHT22;11943;52.270;20.978;2023-04-03T02:41:07;0.80;98.50
23532;DHT22;11943;52.270;20.978;2023-04-03T02:43:33;0.80;98.50
23532;DHT22;11943;52.270;20.978;2023-04-03T02:45:59;0.80;98.60
23532;DHT22;11943;52.270;20.978;2023-04-03T02:48:25;0.80;99.60
23532;DHT22;11943;52.270;20.978;2023-04-03T02:50:51;0.80;98.80
23532;DHT22;11943;52.270;20.978;2023-04-03T02:53:17;0.70;99.20
23532;DHT22;11943;52.270;20.978;2023-04-03T02:55:43;0.70;98.80
23532;DHT22;11943;52.270;20.978;2023-04-03T02:58:09;0.70;99.00
23532;DHT22;11943;52.270;20.978;2023-04-03T03:00:35;0.70;98.70
23532;DHT22;11943;52.270;20.978;2023-04-03T03:03:00;0.70;99.90
23532;DHT22;11943;52.270;20.978;2023-04-03T03:05:27;0.60;99.70
23532;DHT22;11943;52.270;20.978;2023-04-03T03:07:53;0.60;99.20
23532;DHT22;11943;52.270;20.978;2023-04-03T03:10:20;0.50;99.90
23532;DHT22;11943;52.270;20.978;2023-04-03T03:12:45;0.50;99.90
23532;DHT22;11943;52.270;20.978;2023-04-03T03:15:11;0.50;99.90
23532;DHT22;11943;52.270;20.978;2023-04-03T03:17:37;0.40;99.90
23532;DHT22;11943;52.270;20.978;2023-04-03T03:20:04;0.40;99.90
23532;DHT22;11943;52.270;20.978;2023-04-03T03:22:30;0.40;99.90
23532;DHT22;11943;52.270;20.978;2023-04-03T03:24:56;0.40;99.90
23532;DHT22;11943;52.270;20.978;2023-04-03T03:27:22;0.30;99.90
23532;DHT22;11943;52.270;20.978;2023-04-03T03:29:47;0.30;99.90
23532;DHT22;11943;52.270;20.978;2023-04-03T03:32:13;0.30;99.90
23532;DHT22;11943;52.270;20.978;2023-04-03T03:34:39;0.30;99.90
23532;DHT22;11943;52.270;20.978;2023-04-03T03:37:04;0.30;99.90
23532;DHT22;11943;52.270;20.978;2023-04-03T03:39:30;0.20;99.90
23532;DHT22;11943;52.270;20.978;2023-04-03T03:41:56;0.30;99.90
23532;DHT22;11943;52.270;20.978;2023-04-03T03:44:21;0.20;99.90
23532;DHT22;11943;52.270;20.978;2023-04-03T03:46:47;0.20;99.90
23532;DHT22;11943;52.270;20.978;2023-04-03T03:49:12;0.10;99.90
23532;DHT22;11943;52.270;20.978;2023-04-03T03:51:39;0.20;99.90
23532;DHT22;11943;52.270;20.978;2023-04-03T03:54:06;0.10;99.90
23532;DHT22;11943;52.270;20.978;2023-04-03T03:56:32;0.10;99.90
23532;DHT22;11943;52.270;20.978;2023-04-03T03:58:57;0.10;99.90
23532;DHT22;11943;52.270;20.978;2023-04-03T04:01:24;0.10;99.90
23532;DHT22;11943;52.270;20.978;2023-04-03T04:03:49;0.10;99.90
23532;DHT22;11943;52.270;20.978;2023-04-03T04:06:16;0.10;99.90
23532;DHT22;11943;52.270;20.978;2023-04-03T04:08:42;0.10;99.90
23532;DHT22;11943;52.270;20.978;2023-04-03T04:11:08;0.10;99.90
23532;DHT22;11943;52.270;20.978;2023-04-03T04:13:34;0.10;99.90
23532;DHT22;11943;52.270;20.978;2023-04-03T04:16:00;0.00;99.90
23532;DHT22;11943;52.270;20.978;2023-04-03T04:18:25;0.10;99.90
23532;DHT22;11943;52.270;20.978;2023-04-03T04:20:51;0.10;99.90
23532;DHT22;11943;52.270;20.978;2023-04-03T04:23:18;0.00;99.90
23532;DHT22;11943;52.270;20.978;2023-04-03T04:25:48;0.00;99.90
23532;DHT22;11943;52.270;20.978;2023-04-03T04:28:14;0.00;99.90
23532;DHT22;11943;52.270;20.978;2023-04-03T04:30:40;0.00;99.90
23532;DHT22;11943;52.270;20.978;2023-04-03T04:33:06;0.00;99.90
23532;DHT22;11943;52.270;20.978;2023-04-03T04:35:32;0.00;99.90
23532;DHT22;11943;52.270;20.978;2023-04-03T04:37:58;0.00;99.90
23532;DHT22;11943;52.270;20.978;2023-04-03T04:40:23;0.10;99.90
23532;DHT22;11943;52.270;20.978;2023-04-03T04:42:49;0.10;99.90
23532;DHT22;11943;52.270;20.978;2023-04-03T04:45:15;0.10;99.90
23532;DHT22;11943;52.270;20.978;2023-04-03T04:47:41;0.10;99.90
23532;DHT22;11943;52.270;20.978;2023-04-03T04:50:07;0.10;99.90
23532;DHT22;11943;52.270;20.978;2023-04-03T04:52:33;0.10;99.90
23532;DHT22;11943;52.270;20.978;2023-04-03T04:54:58;0.20;99.90
23532;DHT22;11943;52.270;20.978;2023-04-03T04:57:25;0.10;99.90
23532;DHT22;11943;52.270;20.978;2023-04-03T04:59:51;0.10;99.90
23532;DHT22;11943;52.270;20.978;2023-04-03T05:02:16;0.20;99.90
23532;DHT22;11943;52.270;20.978;2023-04-03T05:04:42;0.20;99.90
23532;DHT22;11943;52.270;20.978;2023-04-03T05:07:08;0.20;99.90
23532;DHT22;11943;52.270;20.978;2023-04-03T05:09:33;0.30;99.90
23532;DHT22;11943;52.270;20.978;2023-04-03T05:11:59;0.20;99.90
23532;DHT22;11943;52.270;20.978;2023-04-03T05:14:25;0.30;99.90
23532;DHT22;11943;52.270;20.978;2023-04-03T05:16:51;0.30;99.90
23532;DHT22;11943;52.270;20.978;2023-04-03T05:19:20;0.30;99.90
23532;DHT22;11943;52.270;20.978;2023-04-03T05:21:47;0.40;99.90
23532;DHT22;11943;52.270;20.978;2023-04-03T05:24:15;0.40;99.90
23532;DHT22;11943;52.270;20.978;2023-04-03T05:26:42;0.50;99.90
23532;DHT22;11943;52.270;20.978;2023-04-03T05:29:08;0.50;99.90
23532;DHT22;11943;52.270;20.978;2023-04-03T05:31:33;0.80;99.90
23532;DHT22;11943;52.270;20.978;2023-04-03T05:33:59;1.10;99.90
23532;DHT22;11943;52.270;20.978;2023-04-03T05:36:25;1.50;99.20
23532;DHT22;11943;52.270;20.978;2023-04-03T05:38:52;1.90;96.20
23532;DHT22;11943;52.270;20.978;2023-04-03T05:41:18;2.20;93.90
23532;DHT22;11943;52.270;20.978;2023-04-03T05:43:43;2.50;92.20
23532;DHT22;11943;52.270;20.978;2023-04-03T05:46:13;2.50;91.30
23532;DHT22;11943;52.270;20.978;2023-04-03T05:48:40;2.30;92.20
23532;DHT22;11943;52.270;20.978;2023-04-03T05:51:06;2.10;91.90
23532;DHT22;11943;52.270;20.978;2023-04-03T05:53:35;1.60;92.90
23532;DHT22;11943;52.270;20.978;2023-04-03T05:56:04;1.60;93.50
23532;DHT22;11943;52.270;20.978;2023-04-03T05:58:30;1.50;93.90
23532;DHT22;11943;52.270;20.978;2023-04-03T06:00:56;1.80;93.00
23532;DHT22;11943;52.270;20.978;2023-04-03T06:03:22;1.90;94.10
23532;DHT22;11943;52.270;20.978;2023-04-03T06:05:48;2.00;93.40
23532;DHT22;11943;52.270;20.978;2023-04-03T06:08:14;1.80;93.90
23532;DHT22;11943;52.270;20.978;2023-04-03T06:10:40;2.00;93.00
23532;DHT22;11943;52.270;20.978;2023-04-03T06:13:06;1.70;92.80
23532;DHT22;11943;52.270;20.978;2023-04-03T06:15:32;1.60;93.10
23532;DHT22;11943;52.270;20.978;2023-04-03T06:17:59;1.50;94.10
23532;DHT22;11943;52.270;20.978;2023-04-03T06:20:25;1.20;93.80
23532;DHT22;11943;52.270;20.978;2023-04-03T06:22:51;1.00;94.00
23532;DHT22;11943;52.270;20.978;2023-04-03T06:25:16;1.00;94.30
23532;DHT22;11943;52.270;20.978;2023-04-03T06:27:44;1.00;94.80
23532;DHT22;11943;52.270;20.978;2023-04-03T06:30:11;1.10;94.70
23532;DHT22;11943;52.270;20.978;2023-04-03T06:32:37;1.30;94.70
23532;DHT22;11943;52.270;20.978;2023-04-03T06:35:04;1.50;94.10
23532;DHT22;11943;52.270;20.978;2023-04-03T06:37:30;1.50;93.40
23532;DHT22;11943;52.270;20.978;2023-04-03T06:39:56;1.40;93.20
23532;DHT22;11943;52.270;20.978;2023-04-03T06:42:22;1.30;93.50
23532;DHT22;11943;52.270;20.978;2023-04-03T06:44:48;1.40;93.60
23532;DHT22;11943;52.270;20.978;2023-04-03T06:47:15;1.50;93.40
23532;DHT22;11943;52.270;20.978;2023-04-03T06:49:41;1.70;93.40
23532;DHT22;11943;52.270;20.978;2023-04-03T06:52:07;1.70;93.20
23532;DHT22;11943;52.270;20.978;2023-04-03T06:54:33;2.00;92.40
23532;DHT22;11943;52.270;20.978;2023-04-03T06:56:59;2.10;92.80
23532;DHT22;11943;52.270;20.978;2023-04-03T06:59:25;2.20;91.90
23532;DHT22;11943;52.270;20.978;2023-04-03T07:01:51;2.10;91.70
23532;DHT22;11943;52.270;20.978;2023-04-03T07:04:17;2.20;91.30
23532;DHT22;11943;52.270;20.978;2023-04-03T07:06:43;2.40;91.60
23532;DHT22;11943;52.270;20.978;2023-04-03T07:09:09;2.50;90.80
23532;DHT22;11943;52.270;20.978;2023-04-03T07:11:36;2.60;89.90
23532;DHT22;11943;52.270;20.978;2023-04-03T07:14:02;2.50;89.60
23532;DHT22;11943;52.270;20.978;2023-04-03T07:16:28;2.30;88.70
23532;DHT22;11943;52.270;20.978;2023-04-03T07:18:56;2.10;89.50
23532;DHT22;11943;52.270;20.978;2023-04-03T07:21:28;2.50;90.10
23532;DHT22;11943;52.270;20.978;2023-04-03T07:23:54;2.50;89.20
23532;DHT22;11943;52.270;20.978;2023-04-03T07:26:20;2.80;88.30
23532;DHT22;11943;52.270;20.978;2023-04-03T07:28:47;2.90;87.00
23532;DHT22;11943;52.270;20.978;2023-04-03T07:31:14;3.00;84.30
23532;DHT22;11943;52.270;20.978;2023-04-03T07:33:42;2.80;85.40
23532;DHT22;11943;52.270;20.978;2023-04-03T07:36:09;3.00;87.40
23532;DHT22;11943;52.270;20.978;2023-04-03T07:38:42;3.20;86.60
23532;DHT22;11943;52.270;20.978;2023-04-03T07:41:14;3.10;83.00
23532;DHT22;11943;52.270;20.978;2023-04-03T07:43:40;3.40;84.00
23532;DHT22;11943;52.270;20.978;2023-04-03T07:46:07;3.30;85.00
23532;DHT22;11943;52.270;20.978;2023-04-03T07:48:33;3.30;83.10
23532;DHT22;11943;52.270;20.978;2023-04-03T07:51:01;3.40;82.50
23532;DHT22;11943;52.270;20.978;2023-04-03T07:53:28;3.70;84.60
23532;DHT22;11943;52.270;20.978;2023-04-03T07:55:54;3.40;79.60
23532;DHT22;11943;52.270;20.978;2023-04-03T07:58:21;3.70;81.30
23532;DHT22;11943;52.270;20.978;2023-04-03T08:00:47;4.00;78.50
23532;DHT22;11943;52.270;20.978;2023-04-03T08:03:14;4.00;78.30
23532;DHT22;11943;52.270;20.978;2023-04-03T08:05:43;4.10;78.00
23532;DHT22;11943;52.270;20.978;2023-04-03T08:08:14;4.20;79.40
23532;DHT22;11943;52.270;20.978;2023-04-03T08:10:40;4.20;77.80
23532;DHT22;11943;52.270;20.978;2023-04-03T08:13:07;4.00;71.70
23532;DHT22;11943;52.270;20.978;2023-04-03T08:15:33;4.20;73.80
23532;DHT22;11943;52.270;20.978;2023-04-03T08:17:59;4.60;76.90
23532;DHT22;11943;52.270;20.978;2023-04-03T08:20:26;4.50;74.00
23532;DHT22;11943;52.270;20.978;2023-04-03T08:22:52;4.70;75.60
23532;DHT22;11943;52.270;20.978;2023-04-03T08:25:18;4.80;74.80
23532;DHT22;11943;52.270;20.978;2023-04-03T08:27:44;4.70;71.80
23532;DHT22;11943;52.270;20.978;2023-04-03T08:30:10;4.70;68.20
23532;DHT22;11943;52.270;20.978;2023-04-03T08:32:36;5.00;70.00
23532;DHT22;11943;52.270;20.978;2023-04-03T08:35:03;5.00;65.70
23532;DHT22;11943;52.270;20.978;2023-04-03T08:37:35;4.90;65.00
23532;DHT22;11943;52.270;20.978;2023-04-03T08:40:10;5.00;66.80
23532;DHT22;11943;52.270;20.978;2023-04-03T08:48:12;5.30;67.40
23532;DHT22;11943;52.270;20.978;2023-04-03T08:50:42;5.10;63.60
23532;DHT22;11943;52.270;20.978;2023-04-03T08:53:14;5.10;63.90
23532;DHT22;11943;52.270;20.978;2023-04-03T08:55:47;5.10;64.00
23532;DHT22;11943;52.270;20.978;2023-04-03T08:58:26;5.00;63.80
23532;DHT22;11943;52.270;20.978;2023-04-03T09:01:10;4.70;62.50
23532;DHT22;11943;52.270;20.978;2023-04-03T09:03:40;4.90;62.80
23532;DHT22;11943;52.270;20.978;2023-04-03T09:06:25;4.80;62.70
23532;DHT22;11943;52.270;20.978;2023-04-03T09:11:51;4.90;63.20
23532;DHT22;11943;52.270;20.978;2023-04-03T09:14:31;5.10;62.10
23532;DHT22;11943;52.270;20.978;2023-04-03T09:17:07;5.20;61.70
23532;DHT22;11943;52.270;20.978;2023-04-03T09:19:43;5.40;61.50
23532;DHT22;11943;52.270;20.978;2023-04-03T09:22:22;5.40;61.00
23532;DHT22;11943;52.270;20.978;2023-04-03T09:25:17;5.80;62.30
23532;DHT22;11943;52.270;20.978;2023-04-03T09:27:44;5.60;60.00
23532;DHT22;11943;52.270;20.978;2023-04-03T09:30:17;5.10;60.40
23532;DHT22;11943;52.270;20.978;2023-04-03T09:32:48;4.90;60.80
23532;DHT22;11943;52.270;20.978;2023-04-03T09:35:27;4.90;62.80
23532;DHT22;11943;52.270;20.978;2023-04-03T09:40:41;5.20;61.20
23532;DHT22;11943;52.270;20.978;2023-04-03T09:45:49;5.40;59.70
23532;DHT22;11943;52.270;20.978;2023-04-03T09:48:17;5.80;62.30
23532;DHT22;11943;52.270;20.978;2023-04-03T09:53:51;6.30;60.10
23532;DHT22;11943;52.270;20.978;2023-04-03T09:58:45;5.90;57.10
23532;DHT22;11943;52.270;20.978;2023-04-03T10:01:34;5.60;58.20
23532;DHT22;11943;52.270;20.978;2023-04-03T10:04:15;5.80;59.30
23532;DHT22;11943;52.270;20.978;2023-04-03T10:06:46;6.30;58.90
23532;DHT22;11943;52.270;20.978;2023-04-03T10:09:26;6.50;57.30
23532;DHT22;11943;52.270;20.978;2023-04-03T10:14:27;6.30;56.40
23532;DHT22;11943;52.270;20.978;2023-04-03T10:22:40;6.20;58.00
23532;DHT22;11943;52.270;20.978;2023-04-03T10:31:07;6.60;56.30
23532;DHT22;11943;52.270;20.978;2023-04-03T10:49:42;7.50;53.90
23532;DHT22;11943;52.270;20.978;2023-04-03T10:52:23;7.40;54.50
23532;DHT22;11943;52.270;20.978;2023-04-03T10:57:36;6.60;56.30
23532;DHT22;11943;52.270;20.978;2023-04-03T11:00:06;6.50;55.60
23532;DHT22;11943;52.270;20.978;2023-04-03T11:02:55;6.70;55.70
23532;DHT22;11943;52.270;20.978;2023-04-03T11:07:57;6.80;55.40
23532;DHT22;11943;52.270;20.978;2023-04-03T11:10:41;6.40;56.20
23532;DHT22;11943;52.270;20.978;2023-04-03T11:15:45;5.90;56.10
23532;DHT22;11943;52.270;20.978;2023-04-03T11:18:22;6.10;57.40
23532;DHT22;11943;52.270;20.978;2023-04-03T11:21:02;6.60;55.30
23532;DHT22;11943;52.270;20.978;2023-04-03T11:23:34;6.90;55.60
23532;DHT22;11943;52.270;20.978;2023-04-03T11:26:11;7.40;54.10
23532;DHT22;11943;52.270;20.978;2023-04-03T11:28:37;7.80;54.80
23532;DHT22;11943;52.270;20.978;2023-04-03T11:36:42;6.60;54.60
23532;DHT22;11943;52.270;20.978;2023-04-03T11:39:25;6.60;54.80
23532;DHT22;11943;52.270;20.978;2023-04-03T11:41:52;6.50;56.40
23532;DHT22;11943;52.270;20.978;2023-04-03T11:44:37;6.80;55.40
23532;DHT22;11943;52.270;20.978;2023-04-03T11:47:05;7.10;54.00
23532;DHT22;11943;52.270;20.978;2023-04-03T11:50:03;7.20;52.60
23532;DHT22;11943;52.270;20.978;2023-04-03T11:52:56;7.60;53.20
23532;DHT22;11943;52.270;20.978;2023-04-03T12:05:56;6.80;54.40
23532;DHT22;11943;52.270;20.978;2023-04-03T12:16:27;6.90;54.60
23532;DHT22;11943;52.270;20.978;2023-04-03T12:18:59;6.80;54.30
23532;DHT22;11943;52.270;20.978;2023-04-03T12:29:34;6.90;54.00
23532;DHT22;11943;52.270;20.978;2023-04-03T12:46:14;6.90;52.80
23532;DHT22;11943;52.270;20.978;2023-04-03T12:51:14;6.50;54.50
23532;DHT22;11943;52.270;20.978;2023-04-03T12:53:40;6.80;53.30
23532;DHT22;11943;52.270;20.978;2023-04-03T12:56:26;6.90;53.10
23532;DHT22;11943;52.270;20.978;2023-04-03T12:58:54;7.40;52.00
23532;DHT22;11943;52.270;20.978;2023-04-03T13:01:24;7.60;51.00
23532;DHT22;11943;52.270;20.978;2023-04-03T13:03:55;7.70;51.30
23532;DHT22;11943;52.270;20.978;2023-04-03T13:06:29;7.70;51.10
23532;DHT22;11943;52.270;20.978;2023-04-03T13:09:00;7.50;52.30
23532;DHT22;11943;52.270;20.978;2023-04-03T13:11:37;7.30;52.50
23532;DHT22;11943;52.270;20.978;2023-04-03T13:14:16;6.90;52.30
23532;DHT22;11943;52.270;20.978;2023-04-03T13:19:36;6.70;53.00
23532;DHT22;11943;52.270;20.978;2023-04-03T13:24:50;7.00;53.70
23532;DHT22;11943;52.270;20.978;2023-04-03T13:27:17;7.20;52.90
23532;DHT22;11943;52.270;20.978;2023-04-03T13:29:52;6.80;52.40
23532;DHT22;11943;52.270;20.978;2023-04-03T13:32:29;6.60;53.30
23532;DHT22;11943;52.270;20.978;2023-04-03T13:34:55;6.70;54.60
23532;DHT22;11943;52.270;20.978;2023-04-03T13:37:38;6.80;55.80
23532;DHT22;11943;52.270;20.978;2023-04-03T13:42:35;6.60;53.50
23532;DHT22;11943;52.270;20.978;2023-04-03T13:45:18;6.50;53.80
23532;DHT22;11943;52.270;20.978;2023-04-03T13:47:46;6.50;55.40
23532;DHT22;11943;52.270;20.978;2023-04-03T13:50:14;6.70;55.50
23532;DHT22;11943;52.270;20.978;2023-04-03T13:52:53;6.40;53.20
23532;DHT22;11943;52.270;20.978;2023-04-03T13:55:29;6.50;53.60
23532;DHT22;11943;52.270;20.978;2023-04-03T13:58:02;6.40;53.70
23532;DHT22;11943;52.270;20.978;2023-04-03T14:00:31;6.40;53.40
23532;DHT22;11943;52.270;20.978;2023-04-03T14:02:58;6.60;54.60
23532;DHT22;11943;52.270;20.978;2023-04-03T14:05:24;6.50;54.10
23532;DHT22;11943;52.270;20.978;2023-04-03T14:07:53;6.80;55.70
23532;DHT22;11943;52.270;20.978;2023-04-03T14:10:19;6.70;54.10
23532;DHT22;11943;52.270;20.978;2023-04-03T14:12:45;6.60;54.20
23532;DHT22;11943;52.270;20.978;2023-04-03T14:15:18;6.60;54.20
23532;DHT22;11943;52.270;20.978;2023-04-03T14:17:45;6.70;54.80
23532;DHT22;11943;52.270;20.978;2023-04-03T14:20:16;6.60;54.20
23532;DHT22;11943;52.270;20.978;2023-04-03T14:22:42;6.40;54.50
23532;DHT22;11943;52.270;20.978;2023-04-03T14:25:08;6.20;54.50
23532;DHT22;11943;52.270;20.978;2023-04-03T14:27:40;6.30;55.50
23532;DHT22;11943;52.270;20.978;2023-04-03T14:30:14;6.40;55.00
23532;DHT22;11943;52.270;20.978;2023-04-03T14:32:39;6.40;54.40
23532;DHT22;11943;52.270;20.978;2023-04-03T14:35:05;6.40;54.10
23532;DHT22;11943;52.270;20.978;2023-04-03T14:37:32;6.40;54.00
23532;DHT22;11943;52.270;20.978;2023-04-03T14:39:59;6.40;54.50
23532;DHT22;11943;52.270;20.978;2023-04-03T14:42:31;6.30;55.00
23532;DHT22;11943;52.270;20.978;2023-04-03T14:44:58;6.10;55.00
23532;DHT22;11943;52.270;20.978;2023-04-03T14:47:28;6.10;56.40
23532;DHT22;11943;52.270;20.978;2023-04-03T14:49:54;6.10;55.80
23532;DHT22;11943;52.270;20.978;2023-04-03T14:52:24;6.10;55.50
23532;DHT22;11943;52.270;20.978;2023-04-03T14:54:54;6.20;55.70
23532;DHT22;11943;52.270;20.978;2023-04-03T14:57:23;6.10;56.70
23532;DHT22;11943;52.270;20.978;2023-04-03T14:59:49;6.20;57.20
23532;DHT22;11943;52.270;20.978;2023-04-03T15:04:55;6.20;55.30
23532;DHT22;11943;52.270;20.978;2023-04-03T15:07:22;6.10;56.20
23532;DHT22;11943;52.270;20.978;2023-04-03T15:09:49;6.00;56.30
23532;DHT22;11943;52.270;20.978;2023-04-03T15:12:14;6.00;55.30
23532;DHT22;11943;52.270;20.978;2023-04-03T15:14:40;6.00;54.80
23532;DHT22;11943;52.270;20.978;2023-04-03T15:17:12;5.90;55.30
23532;DHT22;11943;52.270;20.978;2023-04-03T15:19:40;5.80;55.80
23532;DHT22;11943;52.270;20.978;2023-04-03T15:22:06;5.90;56.40
23532;DHT22;11943;52.270;20.978;2023-04-03T15:24:32;5.90;56.90
23532;DHT22;11943;52.270;20.978;2023-04-03T15:26:57;5.90;56.70
23532;DHT22;11943;52.270;20.978;2023-04-03T15:29:23;5.80;58.50
23532;DHT22;11943;52.270;20.978;2023-04-03T15:31:49;5.80;58.70
23532;DHT22;11943;52.270;20.978;2023-04-03T15:34:18;5.80;57.70
23532;DHT22;11943;52.270;20.978;2023-04-03T15:36:43;5.80;57.80
23532;DHT22;11943;52.270;20.978;2023-04-03T15:39:09;5.60;57.60
23532;DHT22;11943;52.270;20.978;2023-04-03T15:41:34;5.70;57.10
23532;DHT22;11943;52.270;20.978;2023-04-03T15:44:00;5.70;57.80
23532;DHT22;11943;52.270;20.978;2023-04-03T15:46:26;5.80;57.00
23532;DHT22;11943;52.270;20.978;2023-04-03T15:48:51;5.70;58.00
23532;DHT22;11943;52.270;20.978;2023-04-03T15:51:17;5.70;58.30
23532;DHT22;11943;52.270;20.978;2023-04-03T15:53:43;5.60;58.70
23532;DHT22;11943;52.270;20.978;2023-04-03T15:56:09;5.60;59.20
23532;DHT22;11943;52.270;20.978;2023-04-03T15:58:35;5.50;59.20
23532;DHT22;11943;52.270;20.978;2023-04-03T16:01:01;5.50;58.80
23532;DHT22;11943;52.270;20.978;2023-04-03T16:03:27;5.50;59.00
23532;DHT22;11943;52.270;20.978;2023-04-03T16:05:53;5.50;58.90
23532;DHT22;11943;52.270;20.978;2023-04-03T16:08:22;5.50;58.70
23532;DHT22;11943;52.270;20.978;2023-04-03T16:10:47;5.50;57.80
23532;DHT22;11943;52.270;20.978;2023-04-03T16:13:15;5.50;58.60
23532;DHT22;11943;52.270;20.978;2023-04-03T16:15:41;5.50;58.30
23532;DHT22;11943;52.270;20.978;2023-04-03T16:18:07;5.50;58.70
23532;DHT22;11943;52.270;20.978;2023-04-03T16:20:34;5.50;58.70
23532;DHT22;11943;52.270;20.978;2023-04-03T16:23:00;5.50;59.20
23532;DHT22;11943;52.270;20.978;2023-04-03T16:25:26;5.50;59.30
23532;DHT22;11943;52.270;20.978;2023-04-03T16:27:52;5.50;59.30
23532;DHT22;11943;52.270;20.978;2023-04-03T16:30:18;5.50;59.40
23532;DHT22;11943;52.270;20.978;2023-04-03T16:32:43;5.30;59.50
23532;DHT22;11943;52.270;20.978;2023-04-03T16:35:10;5.30;59.60
23532;DHT22;11943;52.270;20.978;2023-04-03T16:37:36;5.30;59.20
23532;DHT22;11943;52.270;20.978;2023-04-03T16:40:03;5.30;59.30
23532;DHT22;11943;52.270;20.978;2023-04-03T16:42:30;5.20;59.00
23532;DHT22;11943;52.270;20.978;2023-04-03T16:44:56;5.20;59.60
23532;DHT22;11943;52.270;20.978;2023-04-03T16:47:21;5.20;59.80
23532;DHT22;11943;52.270;20.978;2023-04-03T16:49:47;5.10;59.80
23532;DHT22;11943;52.270;20.978;2023-04-03T16:52:13;5.10;60.10
23532;DHT22;11943;52.270;20.978;2023-04-03T16:54:39;5.00;60.60
23532;DHT22;11943;52.270;20.978;2023-04-03T16:57:05;5.00;61.00
23532;DHT22;11943;52.270;20.978;2023-04-03T16:59:31;5.10;61.00
23532;DHT22;11943;52.270;20.978;2023-04-03T17:01:56;4.90;61.90
23532;DHT22;11943;52.270;20.978;2023-04-03T17:04:22;4.90;62.20
23532;DHT22;11943;52.270;20.978;2023-04-03T17:06:48;4.80;62.40
23532;DHT22;11943;52.270;20.978;2023-04-03T17:09:13;4.90;61.70
23532;DHT22;11943;52.270;20.978;2023-04-03T17:11:40;4.70;60.10
23532;DHT22;11943;52.270;20.978;2023-04-03T17:14:06;4.70;61.10
23532;DHT22;11943;52.270;20.978;2023-04-03T17:16:34;4.80;61.60
23532;DHT22;11943;52.270;20.978;2023-04-03T17:19:00;4.80;62.20
23532;DHT22;11943;52.270;20.978;2023-04-03T17:21:27;4.80;63.40
23532;DHT22;11943;52.270;20.978;2023-04-03T17:23:57;4.80;63.50
23532;DHT22;11943;52.270;20.978;2023-04-03T17:26:25;4.80;63.50
23532;DHT22;11943;52.270;20.978;2023-04-03T17:28:51;4.80;63.20
23532;DHT22;11943;52.270;20.978;2023-04-03T17:31:17;4.80;64.30
23532;DHT22;11943;52.270;20.978;2023-04-03T17:33:42;4.90;64.10
23532;DHT22;11943;52.270;20.978;2023-04-03T17:36:08;4.80;63.40
23532;DHT22;11943;52.270;20.978;2023-04-03T17:38:34;4.70;63.90
23532;DHT22;11943;52.270;20.978;2023-04-03T17:41:04;4.70;64.10
23532;DHT22;11943;52.270;20.978;2023-04-03T17:43:30;4.70;64.30